sensor_id;sensor_type;location;lat;lon;timestamp;temperature;humidity
20856;DHT22;63058;49.424;8.420;2023-03-14T00:00:23;13.40;99.90
20856;DHT22;63058;49.424;8.420;2023-03-14T00:02:53;13.40;99.90
20856;DHT22;63058;49.424;8.420;2023-03-14T00:05:19;13.40;99.90
20856;DHT22;63058;49.424;8.420;2023-03-14T00:07:45;13.40;99.90
20856;DHT22;63058;49.424;8.420;2023-03-14T00:10:13;13.40;99.90
20856;DHT22;63058;49.424;8.420;2023-03-14T00:12:40;13.40;99.90
20856;DHT22;63058;49.424;8.420;2023-03-14T00:15:06;13.40;99.90
20856;DHT22;63058;49.424;8.420;2023-03-14T00:17:34;13.40;99.90
20856;DHT22;63058;49.424;8.420;2023-03-14T00:20:00;13.40;99.90
20856;DHT22;63058;49.424;8.420;2023-03-14T00:22:40;13.40;99.90
20856;DHT22;63058;49.424;8.420;2023-03-14T00:25:07;13.40;99.90
20856;DHT22;63058;49.424;8.420;2023-03-14T00:27:33;13.40;99.90
20856;DHT22;63058;49.424;8.420;2023-03-14T00:29:58;13.50;99.90
20856;DHT22;63058;49.424;8.420;2023-03-14T00:32:24;13.50;99.90
20856;DHT22;63058;49.424;8.420;2023-03-14T00:34:50;13.50;99.90
20856;DHT22;63058;49.424;8.420;2023-03-14T00:37:16;13.50;99.90
20856;DHT22;63058;49.424;8.420;2023-03-14T00:39:41;13.50;99.90
20856;DHT22;63058;49.424;8.420;2023-03-14T00:42:07;13.50;99.90
20856;DHT22;63058;49.424;8.420;2023-03-14T00:44:33;13.50;99.90
20856;DHT22;63058;49.424;8.420;2023-03-14T00:46:59;13.50;99.90
20856;DHT22;63058;49.424;8.420;2023-03-14T00:49:24;13.50;99.90
20856;DHT22;63058;49.424;8.420;2023-03-14T00:51:50;13.50;99.90
20856;DHT22;63058;49.424;8.420;2023-03-14T00:54:17;13.50;99.90
20856;DHT22;63058;49.424;8.420;2023-03-14T00:56:43;13.50;99.90
20856;DHT22;63058;49.424;8.420;2023-03-14T00:59:09;13.50;99.90
20856;DHT22;63058;49.424;8.420;2023-03-14T01:01:35;13.50;99.90
20856;DHT22;63058;49.424;8.420;2023-03-14T01:04:00;13.50;99.90
20856;DHT22;63058;49.424;8.420;2023-03-14T01:06:28;13.50;99.90
20856;DHT22;63058;49.424;8.420;2023-03-14T01:08:54;13.50;99.90
20856;DHT22;63058;49.424;8.420;2023-03-14T01:11:29;13.50;99.90
20856;DHT22;63058;49.424;8.420;2023-03-14T01:13:55;13.50;99.90
20856;DHT22;63058;49.424;8.420;2023-03-14T01:16:24;13.50;99.90
20856;DHT22;63058;49.424;8.420;2023-03-14T01:18:50;13.50;99.90
20856;DHT22;63058;49.424;8.420;2023-03-14T01:21:19;13.50;99.90
20856;DHT22;63058;49.424;8.420;2023-03-14T01:23:46;13.50;99.90
20856;DHT22;63058;49.424;8.420;2023-03-14T01:26:14;13.50;99.90
20856;DHT22;63058;49.424;8.420;2023-03-14T01:28:41;13.50;99.90
20856;DHT22;63058;49.424;8.420;2023-03-14T01:31:08;13.50;99.90
20856;DHT22;63058;49.424;8.420;2023-03-14T01:33:35;13.50;99.90
20856;DHT22;63058;49.424;8.420;2023-03-14T01:36:00;13.50;99.90
20856;DHT22;63058;49.424;8.420;2023-03-14T01:38:29;13.50;99.90
20856;DHT22;63058;49.424;8.420;2023-03-14T01:40:55;13.50;99.90
20856;DHT22;63058;49.424;8.420;2023-03-14T01:43:21;13.50;99.90
20856;DHT22;63058;49.424;8.420;2023-03-14T01:46:34;13.50;99.90
20856;DHT22;63058;49.424;8.420;2023-03-14T01:49:12;13.50;99.90
20856;DHT22;63058;49.424;8.420;2023-03-14T01:51:44;13.50;99.90
20856;DHT22;63058;49.424;8.420;2023-03-14T01:54:23;13.50;99.90
20856;DHT22;63058;49.424;8.420;2023-03-14T01:57:07;13.50;99.90
20856;DHT22;63058;49.424;8.420;2023-03-14T01:59:34;13.50;99.90
20856;DHT22;63058;49.424;8.420;2023-03-14T02:02:01;13.50;99.90
20856;DHT22;63058;49.424;8.420;2023-03-14T02:04:30;13.50;99.90
20856;DHT22;63058;49.424;8.420;2023-03-14T02:07:13;13.40;99.90
20856;DHT22;63058;49.424;8.420;2023-03-14T02:09:41;13.40;99.90
20856;DHT22;63058;49.424;8.420;2023-03-14T02:12:12;13.40;99.90
20856;DHT22;63058;49.424;8.420;2023-03-14T02:14:39;13.40;99.90
20856;DHT22;63058;49.424;8.420;2023-03-14T02:17:07;13.40;99.90
20856;DHT22;63058;49.424;8.420;2023-03-14T02:20:10;13.40;99.90
20856;DHT22;63058;49.424;8.420;2023-03-14T02:22:40;13.40;99.90
20856;DHT22;63058;49.424;8.420;2023-03-14T02:25:17;13.40;99.90
20856;DHT22;63058;49.424;8.420;2023-03-14T02:27:45;13.40;99.90
20856;DHT22;63058;49.424;8.420;2023-03-14T02:30:15;13.40;99.90
20856;DHT22;63058;49.424;8.420;2023-03-14T02:32:48;13.40;99.90
20856;DHT22;63058;49.424;8.420;2023-03-14T02:35:19;13.40;99.90
20856;DHT22;63058;49.424;8.420;2023-03-14T02:37:55;13.40;99.90
20856;DHT22;63058;49.424;8.420;2023-03-14T02:40:22;13.40;99.90
20856;DHT22;63058;49.424;8.420;2023-03-14T02:42:48;13.50;99.90
20856;DHT22;63058;49.424;8.420;2023-03-14T02:47:44;13.40;99.90
20856;DHT22;63058;49.424;8.420;2023-03-14T02:50:15;13.40;99.90
20856;DHT22;63058;49.424;8.420;2023-03-14T02:52:42;13.40;99.90
20856;DHT22;63058;49.424;8.420;2023-03-14T02:55:08;13.40;99.90
20856;DHT22;63058;49.424;8.420;2023-03-14T02:57:33;13.40;99.90
20856;DHT22;63058;49.424;8.420;2023-03-14T03:00:00;13.40;99.90
20856;DHT22;63058;49.424;8.420;2023-03-14T03:02:27;13.40;99.90
20856;DHT22;63058;49.424;8.420;2023-03-14T03:04:52;13.40;99.90
20856;DHT22;63058;49.424;8.420;2023-03-14T03:07:18;13.40;99.90
20856;DHT22;63058;49.424;8.420;2023-03-14T03:09:44;13.40;99.90
20856;DHT22;63058;49.424;8.420;2023-03-14T03:12:10;13.40;99.90
20856;DHT22;63058;49.424;8.420;2023-03-14T03:14:36;13.40;99.90
20856;DHT22;63058;49.424;8.420;2023-03-14T03:17:06;13.40;99.90
20856;DHT22;63058;49.424;8.420;2023-03-14T03:19:32;13.40;99.90
20856;DHT22;63058;49.424;8.420;2023-03-14T03:21:58;13.40;99.90
20856;DHT22;63058;49.424;8.420;2023-03-14T03:24:25;13.30;99.90
20856;DHT22;63058;49.424;8.420;2023-03-14T03:26:51;13.30;99.90
20856;DHT22;63058;49.424;8.420;2023-03-14T03:29:16;13.40;99.90
20856;DHT22;63058;49.424;8.420;2023-03-14T03:31:42;13.40;99.90
20856;DHT22;63058;49.424;8.420;2023-03-14T03:34:11;13.30;99.90
20856;DHT22;63058;49.424;8.420;2023-03-14T03:36:37;13.30;99.90
20856;DHT22;63058;49.424;8.420;2023-03-14T03:39:03;13.30;99.90
20856;DHT22;63058;49.424;8.420;2023-03-14T03:41:30;13.30;99.90
20856;DHT22;63058;49.424;8.420;2023-03-14T03:43:56;13.30;99.90
20856;DHT22;63058;49.424;8.420;2023-03-14T03:46:22;13.30;99.90
20856;DHT22;63058;49.424;8.420;2023-03-14T03:48:47;13.30;99.90
20856;DHT22;63058;49.424;8.420;2023-03-14T03:51:14;13.20;99.90
20856;DHT22;63058;49.424;8.420;2023-03-14T03:53:41;13.20;99.90
20856;DHT22;63058;49.424;8.420;2023-03-14T03:56:08;13.20;99.90
20856;DHT22;63058;49.424;8.420;2023-03-14T03:58:34;13.20;99.90
20856;DHT22;63058;49.424;8.420;2023-03-14T04:01:00;13.20;99.90
20856;DHT22;63058;49.424;8.420;2023-03-14T04:03:25;13.20;99.90
20856;DHT22;63058;49.424;8.420;2023-03-14T04:06:02;13.20;99.90
20856;DHT22;63058;49.424;8.420;2023-03-14T04:08:29;13.10;99.90
20856;DHT22;63058;49.424;8.420;2023-03-14T04:10:56;13.10;99.90
20856;DHT22;63058;49.424;8.420;2023-03-14T04:13:22;13.10;99.90
20856;DHT22;63058;49.424;8.420;2023-03-14T04:15:48;13.10;99.90
20856;DHT22;63058;49.424;8.420;2023-03-14T04:18:14;13.10;99.90
20856;DHT22;63058;49.424;8.420;2023-03-14T04:20:39;13.10;99.90
20856;DHT22;63058;49.424;8.420;2023-03-14T04:23:05;13.10;99.90
20856;DHT22;63058;49.424;8.420;2023-03-14T04:25:31;13.10;99.90
20856;DHT22;63058;49.424;8.420;2023-03-14T04:27:56;13.10;99.90
20856;DHT22;63058;49.424;8.420;2023-03-14T04:30:22;13.10;99.90
20856;DHT22;63058;49.424;8.420;2023-03-14T04:32:47;13.10;99.90
20856;DHT22;63058;49.424;8.420;2023-03-14T04:35:13;13.00;99.90
20856;DHT22;63058;49.424;8.420;2023-03-14T04:37:39;13.00;99.90
20856;DHT22;63058;49.424;8.420;2023-03-14T04:40:05;13.00;99.90
20856;DHT22;63058;49.424;8.420;2023-03-14T04:42:32;13.00;99.90
20856;DHT22;63058;49.424;8.420;2023-03-14T04:44:58;13.00;99.90
20856;DHT22;63058;49.424;8.420;2023-03-14T04:47:23;12.90;99.90
20856;DHT22;63058;49.424;8.420;2023-03-14T04:49:49;12.90;99.90
20856;DHT22;63058;49.424;8.420;2023-03-14T04:52:15;12.90;99.90
20856;DHT22;63058;49.424;8.420;2023-03-14T04:54:40;12.90;99.90
20856;DHT22;63058;49.424;8.420;2023-03-14T04:57:06;12.90;99.90
20856;DHT22;63058;49.424;8.420;2023-03-14T04:59:32;12.80;99.90
20856;DHT22;63058;49.424;8.420;2023-03-14T05:01:57;12.90;99.90
20856;DHT22;63058;49.424;8.420;2023-03-14T05:04:23;12.90;99.90
20856;DHT22;63058;49.424;8.420;2023-03-14T05:06:49;12.90;99.90
20856;DHT22;63058;49.424;8.420;2023-03-14T05:09:14;12.90;99.90
20856;DHT22;63058;49.424;8.420;2023-03-14T05:11:40;12.90;99.90
20856;DHT22;63058;49.424;8.420;2023-03-14T05:14:06;12.90;99.90
20856;DHT22;63058;49.424;8.420;2023-03-14T05:16:32;13.00;99.90
20856;DHT22;63058;49.424;8.420;2023-03-14T05:18:58;13.00;99.90
20856;DHT22;63058;49.424;8.420;2023-03-14T05:21:23;13.00;99.90
20856;DHT22;63058;49.424;8.420;2023-03-14T05:23:49;13.10;99.90
20856;DHT22;63058;49.424;8.420;2023-03-14T05:26:15;13.00;99.90
20856;DHT22;63058;49.424;8.420;2023-03-14T05:28:42;13.10;99.90
20856;DHT22;63058;49.424;8.420;2023-03-14T05:31:08;13.00;99.90
20856;DHT22;63058;49.424;8.420;2023-03-14T05:33:34;13.10;99.90
20856;DHT22;63058;49.424;8.420;2023-03-14T05:36:00;13.10;99.90
20856;DHT22;63058;49.424;8.420;2023-03-14T05:38:25;13.10;99.90
20856;DHT22;63058;49.424;8.420;2023-03-14T05:40:51;13.10;99.90
20856;DHT22;63058;49.424;8.420;2023-03-14T05:43:17;13.10;99.90
20856;DHT22;63058;49.424;8.420;2023-03-14T05:45:42;13.20;99.90
20856;DHT22;63058;49.424;8.420;2023-03-14T05:48:08;13.20;99.90
20856;DHT22;63058;49.424;8.420;2023-03-14T05:50:34;13.20;99.90
20856;DHT22;63058;49.424;8.420;2023-03-14T05:53:00;13.20;99.90
20856;DHT22;63058;49.424;8.420;2023-03-14T05:55:26;13.20;99.90
20856;DHT22;63058;49.424;8.420;2023-03-14T05:57:53;13.30;99.90
20856;DHT22;63058;49.424;8.420;2023-03-14T06:00:19;13.30;99.90
20856;DHT22;63058;49.424;8.420;2023-03-14T06:02:45;13.30;99.90
20856;DHT22;63058;49.424;8.420;2023-03-14T06:05:11;13.30;99.90
20856;DHT22;63058;49.424;8.420;2023-03-14T06:07:36;13.30;99.90
20856;DHT22;63058;49.424;8.420;2023-03-14T06:10:02;13.40;99.90
20856;DHT22;63058;49.424;8.420;2023-03-14T06:12:28;13.40;99.90
20856;DHT22;63058;49.424;8.420;2023-03-14T06:14:53;13.40;99.90
20856;DHT22;63058;49.424;8.420;2023-03-14T06:17:19;13.40;99.90
20856;DHT22;63058;49.424;8.420;2023-03-14T06:19:45;13.40;99.90
20856;DHT22;63058;49.424;8.420;2023-03-14T06:22:10;13.50;99.90
20856;DHT22;63058;49.424;8.420;2023-03-14T06:24:36;13.40;99.90
20856;DHT22;63058;49.424;8.420;2023-03-14T06:27:02;13.50;99.90
20856;DHT22;63058;49.424;8.420;2023-03-14T06:29:29;13.40;99.90
20856;DHT22;63058;49.424;8.420;2023-03-14T06:31:54;13.50;99.90
20856;DHT22;63058;49.424;8.420;2023-03-14T06:34:20;13.50;99.90
20856;DHT22;63058;49.424;8.420;2023-03-14T06:36:46;13.50;99.90
20856;DHT22;63058;49.424;8.420;2023-03-14T06:39:12;13.50;99.90
20856;DHT22;63058;49.424;8.420;2023-03-14T06:41:37;13.50;99.90
20856;DHT22;63058;49.424;8.420;2023-03-14T06:44:03;13.60;99.90
20856;DHT22;63058;49.424;8.420;2023-03-14T06:46:29;13.50;99.90
20856;DHT22;63058;49.424;8.420;2023-03-14T06:48:54;13.60;99.90
20856;DHT22;63058;49.424;8.420;2023-03-14T06:51:20;13.60;99.90
20856;DHT22;63058;49.424;8.420;2023-03-14T06:53:46;13.60;99.90
20856;DHT22;63058;49.424;8.420;2023-03-14T06:56:12;13.60;99.90
20856;DHT22;63058;49.424;8.420;2023-03-14T06:58:37;13.60;99.90
20856;DHT22;63058;49.424;8.420;2023-03-14T07:01:05;13.60;99.90
20856;DHT22;63058;49.424;8.420;2023-03-14T07:03:31;13.60;99.90
20856;DHT22;63058;49.424;8.420;2023-03-14T07:05:57;13.60;99.90
20856;DHT22;63058;49.424;8.420;2023-03-14T07:08:23;13.70;99.90
20856;DHT22;63058;49.424;8.420;2023-03-14T07:10:49;13.70;99.90
20856;DHT22;63058;49.424;8.420;2023-03-14T07:13:14;13.70;99.90
20856;DHT22;63058;49.424;8.420;2023-03-14T07:15:40;13.70;99.90
20856;DHT22;63058;49.424;8.420;2023-03-14T07:18:05;13.70;99.90
20856;DHT22;63058;49.424;8.420;2023-03-14T07:20:31;13.70;99.90
20856;DHT22;63058;49.424;8.420;2023-03-14T07:22:57;13.70;99.90
20856;DHT22;63058;49.424;8.420;2023-03-14T07:25:25;13.70;99.90
20856;DHT22;63058;49.424;8.420;2023-03-14T07:27:51;13.70;99.90
20856;DHT22;63058;49.424;8.420;2023-03-14T07:30:17;13.80;99.90
20856;DHT22;63058;49.424;8.420;2023-03-14T07:32:43;13.80;99.90
20856;DHT22;63058;49.424;8.420;2023-03-14T07:35:09;13.80;99.90
20856;DHT22;63058;49.424;8.420;2023-03-14T07:37:34;13.80;99.90
20856;DHT22;63058;49.424;8.420;2023-03-14T07:40:00;13.80;99.90
20856;DHT22;63058;49.424;8.420;2023-03-14T07:42:26;13.80;99.90
20856;DHT22;63058;49.424;8.420;2023-03-14T07:44:51;13.80;99.90
20856;DHT22;63058;49.424;8.420;2023-03-14T07:47:17;13.80;99.90
20856;DHT22;63058;49.424;8.420;2023-03-14T07:49:43;13.80;99.90
20856;DHT22;63058;49.424;8.420;2023-03-14T07:52:08;13.90;99.90
20856;DHT22;63058;49.424;8.420;2023-03-14T07:54:34;13.90;99.90
20856;DHT22;63058;49.424;8.420;2023-03-14T07:57:00;13.90;99.90
20856;DHT22;63058;49.424;8.420;2023-03-14T07:59:27;13.90;99.90
20856;DHT22;63058;49.424;8.420;2023-03-14T08:01:52;14.00;99.90
20856;DHT22;63058;49.424;8.420;2023-03-14T08:04:18;14.00;99.90
20856;DHT22;63058;49.424;8.420;2023-03-14T08:06:44;14.10;99.90
20856;DHT22;63058;49.424;8.420;2023-03-14T08:09:09;14.10;99.90
20856;DHT22;63058;49.424;8.420;2023-03-14T08:11:36;14.10;99.90
20856;DHT22;63058;49.424;8.420;2023-03-14T08:14:01;14.20;99.90
20856;DHT22;63058;49.424;8.420;2023-03-14T08:16:27;14.30;99.90
20856;DHT22;63058;49.424;8.420;2023-03-14T08:18:53;14.30;99.90
20856;DHT22;63058;49.424;8.420;2023-03-14T08:21:18;14.40;99.90
20856;DHT22;63058;49.424;8.420;2023-03-14T08:23:44;14.50;99.90
20856;DHT22;63058;49.424;8.420;2023-03-14T08:26:09;14.60;99.90
20856;DHT22;63058;49.424;8.420;2023-03-14T08:28:35;14.60;99.90
20856;DHT22;63058;49.424;8.420;2023-03-14T08:31:01;14.60;99.90
20856;DHT22;63058;49.424;8.420;2023-03-14T08:33:28;14.70;99.90
20856;DHT22;63058;49.424;8.420;2023-03-14T08:35:55;14.70;99.90
20856;DHT22;63058;49.424;8.420;2023-03-14T08:38:22;14.70;99.90
20856;DHT22;63058;49.424;8.420;2023-03-14T08:40:48;14.80;99.90
20856;DHT22;63058;49.424;8.420;2023-03-14T08:43:14;14.80;99.90
20856;DHT22;63058;49.424;8.420;2023-03-14T08:45:40;14.90;99.90
20856;DHT22;63058;49.424;8.420;2023-03-14T08:48:05;15.00;99.90
20856;DHT22;63058;49.424;8.420;2023-03-14T08:50:31;15.10;99.90
20856;DHT22;63058;49.424;8.420;2023-03-14T08:52:57;15.10;99.90
20856;DHT22;63058;49.424;8.420;2023-03-14T08:55:26;15.20;99.90
20856;DHT22;63058;49.424;8.420;2023-03-14T08:57:54;15.30;99.90
20856;DHT22;63058;49.424;8.420;2023-03-14T09:00:20;15.30;99.90
20856;DHT22;63058;49.424;8.420;2023-03-14T09:02:46;15.40;99.90
20856;DHT22;63058;49.424;8.420;2023-03-14T09:05:12;15.40;99.90
20856;DHT22;63058;49.424;8.420;2023-03-14T09:07:39;15.50;99.90
20856;DHT22;63058;49.424;8.420;2023-03-14T09:10:06;15.70;99.90
20856;DHT22;63058;49.424;8.420;2023-03-14T09:12:32;15.80;99.90
20856;DHT22;63058;49.424;8.420;2023-03-14T09:14:58;15.90;99.90
20856;DHT22;63058;49.424;8.420;2023-03-14T09:17:23;15.90;99.90
20856;DHT22;63058;49.424;8.420;2023-03-14T09:19:49;16.00;98.40
20856;DHT22;63058;49.424;8.420;2023-03-14T09:22:15;16.00;99.80
20856;DHT22;63058;49.424;8.420;2023-03-14T09:24:41;16.00;99.50
20856;DHT22;63058;49.424;8.420;2023-03-14T09:27:07;16.00;99.60
20856;DHT22;63058;49.424;8.420;2023-03-14T09:29:33;16.00;99.90
20856;DHT22;63058;49.424;8.420;2023-03-14T09:31:59;16.10;99.90
20856;DHT22;63058;49.424;8.420;2023-03-14T09:34:25;16.10;99.90
20856;DHT22;63058;49.424;8.420;2023-03-14T09:36:50;16.20;99.90
20856;DHT22;63058;49.424;8.420;2023-03-14T09:39:17;16.10;98.20
20856;DHT22;63058;49.424;8.420;2023-03-14T09:41:45;16.10;98.40
20856;DHT22;63058;49.424;8.420;2023-03-14T09:44:19;16.00;97.10
20856;DHT22;63058;49.424;8.420;2023-03-14T09:46:50;15.90;98.30
20856;DHT22;63058;49.424;8.420;2023-03-14T09:49:20;15.90;99.10
20856;DHT22;63058;49.424;8.420;2023-03-14T09:51:49;15.90;98.30
20856;DHT22;63058;49.424;8.420;2023-03-14T09:54:44;15.80;96.80
20856;DHT22;63058;49.424;8.420;2023-03-14T09:57:23;15.70;96.30
20856;DHT22;63058;49.424;8.420;2023-03-14T09:59:50;15.70;97.30
20856;DHT22;63058;49.424;8.420;2023-03-14T10:02:24;15.60;98.60
20856;DHT22;63058;49.424;8.420;2023-03-14T10:04:52;15.60;98.20
20856;DHT22;63058;49.424;8.420;2023-03-14T10:07:27;15.60;98.80
20856;DHT22;63058;49.424;8.420;2023-03-14T10:09:54;15.60;99.10
20856;DHT22;63058;49.424;8.420;2023-03-14T10:12:19;15.60;99.50
20856;DHT22;63058;49.424;8.420;2023-03-14T10:14:50;15.60;99.40
20856;DHT22;63058;49.424;8.420;2023-03-14T12:12:30;10.90;99.90
20856;DHT22;63058;49.424;8.420;2023-03-14T12:15:01;10.90;99.90
20856;DHT22;63058;49.424;8.420;2023-03-14T12:17:38;11.20;99.90
20856;DHT22;63058;49.424;8.420;2023-03-14T12:22:44;11.90;99.90
20856;DHT22;63058;49.424;8.420;2023-03-14T12:25:28;12.30;99.90
20856;DHT22;63058;49.424;8.420;2023-03-14T12:30:36;12.80;99.90
20856;DHT22;63058;49.424;8.420;2023-03-14T12:35:45;13.20;99.90
20856;DHT22;63058;49.424;8.420;2023-03-14T12:54:45;13.00;99.90
20856;DHT22;63058;49.424;8.420;2023-03-14T12:58:08;12.80;99.90
20856;DHT22;63058;49.424;8.420;2023-03-14T13:00:46;12.80;99.90
20856;DHT22;63058;49.424;8.420;2023-03-14T13:17:27;13.10;99.90
20856;DHT22;63058;49.424;8.420;2023-03-14T13:19:56;13.10;99.90
20856;DHT22;63058;49.424;8.420;2023-03-14T13:22:34;13.20;99.90
20856;DHT22;63058;49.424;8.420;2023-03-14T13:25:09;13.30;95.10
20856;DHT22;63058;49.424;8.420;2023-03-14T13:27:36;13.20;95.00
20856;DHT22;63058;49.424;8.420;2023-03-14T13:32:42;13.30;97.50
20856;DHT22;63058;49.424;8.420;2023-03-14T13:35:22;13.40;97.00
20856;DHT22;63058;49.424;8.420;2023-03-14T13:37:52;13.50;97.40
20856;DHT22;63058;49.424;8.420;2023-03-14T13:40:31;13.60;97.00
20856;DHT22;63058;49.424;8.420;2023-03-14T13:43:10;13.80;98.20
20856;DHT22;63058;49.424;8.420;2023-03-14T13:45:44;14.10;97.20
20856;DHT22;63058;49.424;8.420;2023-03-14T13:48:15;14.30;97.40
20856;DHT22;63058;49.424;8.420;2023-03-14T13:51:03;14.50;95.60
20856;DHT22;63058;49.424;8.420;2023-03-14T13:53:30;14.60;95.50
20856;DHT22;63058;49.424;8.420;2023-03-14T13:55:56;14.60;93.20
20856;DHT22;63058;49.424;8.420;2023-03-14T13:58:22;14.60;92.50
20856;DHT22;63058;49.424;8.420;2023-03-14T14:01:18;14.60;90.40
20856;DHT22;63058;49.424;8.420;2023-03-14T14:03:47;14.50;72.10
20856;DHT22;63058;49.424;8.420;2023-03-14T14:06:36;14.40;81.00
20856;DHT22;63058;49.424;8.420;2023-03-14T14:09:16;14.30;76.50
20856;DHT22;63058;49.424;8.420;2023-03-14T14:12:00;14.30;78.10
20856;DHT22;63058;49.424;8.420;2023-03-14T14:14:43;14.50;76.20
20856;DHT22;63058;49.424;8.420;2023-03-14T14:17:12;14.70;68.00
20856;DHT22;63058;49.424;8.420;2023-03-14T14:19:41;14.90;67.80
20856;DHT22;63058;49.424;8.420;2023-03-14T14:22:09;15.20;64.50
20856;DHT22;63058;49.424;8.420;2023-03-14T14:24:36;15.70;69.20
20856;DHT22;63058;49.424;8.420;2023-03-14T14:27:36;16.10;73.60
20856;DHT22;63058;49.424;8.420;2023-03-14T14:30:28;16.70;79.30
20856;DHT22;63058;49.424;8.420;2023-03-14T14:33:11;17.40;83.80
20856;DHT22;63058;49.424;8.420;2023-03-14T14:35:37;17.90;85.20
20856;DHT22;63058;49.424;8.420;2023-03-14T14:38:03;18.40;83.60
20856;DHT22;63058;49.424;8.420;2023-03-14T14:40:44;18.50;81.50
20856;DHT22;63058;49.424;8.420;2023-03-14T14:43:16;18.50;64.70
20856;DHT22;63058;49.424;8.420;2023-03-14T14:45:42;18.30;61.50
20856;DHT22;63058;49.424;8.420;2023-03-14T14:48:13;17.80;55.30
20856;DHT22;63058;49.424;8.420;2023-03-14T14:56:07;16.50;62.60
20856;DHT22;63058;49.424;8.420;2023-03-14T14:58:36;16.20;64.00
20856;DHT22;63058;49.424;8.420;2023-03-14T15:01:24;15.90;60.00
20856;DHT22;63058;49.424;8.420;2023-03-14T15:03:51;15.60;59.60
20856;DHT22;63058;49.424;8.420;2023-03-14T15:06:18;15.30;62.70
20856;DHT22;63058;49.424;8.420;2023-03-14T15:08:48;15.00;58.10
20856;DHT22;63058;49.424;8.420;2023-03-14T15:11:25;14.80;61.30
20856;DHT22;63058;49.424;8.420;2023-03-14T15:13:52;14.50;58.00
20856;DHT22;63058;49.424;8.420;2023-03-14T15:16:22;14.40;57.90
20856;DHT22;63058;49.424;8.420;2023-03-14T15:18:53;14.10;58.90
20856;DHT22;63058;49.424;8.420;2023-03-14T15:21:21;14.00;55.30
20856;DHT22;63058;49.424;8.420;2023-03-14T15:23:47;13.90;58.30
20856;DHT22;63058;49.424;8.420;2023-03-14T15:26:15;13.80;59.00
20856;DHT22;63058;49.424;8.420;2023-03-14T15:28:41;13.70;59.30
20856;DHT22;63058;49.424;8.420;2023-03-14T15:54:07;15.20;51.60
20856;DHT22;63058;49.424;8.420;2023-03-14T15:56:33;15.20;55.90
20856;DHT22;63058;49.424;8.420;2023-03-14T15:59:00;15.40;54.80
20856;DHT22;63058;49.424;8.420;2023-03-14T16:01:25;15.80;56.30
20856;DHT22;63058;49.424;8.420;2023-03-14T16:03:51;16.10;56.90
20856;DHT22;63058;49.424;8.420;2023-03-14T16:06:18;16.40;57.60
20856;DHT22;63058;49.424;8.420;2023-03-14T16:08:45;16.70;55.50
20856;DHT22;63058;49.424;8.420;2023-03-14T16:11:12;16.90;55.60
20856;DHT22;63058;49.424;8.420;2023-03-14T16:13:40;17.10;55.10
20856;DHT22;63058;49.424;8.420;2023-03-14T16:16:08;17.30;54.40
20856;DHT22;63058;49.424;8.420;2023-03-14T16:18:36;17.40;55.80
20856;DHT22;63058;49.424;8.420;2023-03-14T16:21:06;17.40;54.90
20856;DHT22;63058;49.424;8.420;2023-03-14T16:23:33;17.40;58.20
20856;DHT22;63058;49.424;8.420;2023-03-14T16:26:02;17.20;58.50
20856;DHT22;63058;49.424;8.420;2023-03-14T16:28:29;16.90;59.10
20856;DHT22;63058;49.424;8.420;2023-03-14T16:31:03;16.50;57.50
20856;DHT22;63058;49.424;8.420;2023-03-14T16:33:31;16.10;58.80
20856;DHT22;63058;49.424;8.420;2023-03-14T16:35:58;15.70;60.70
20856;DHT22;63058;49.424;8.420;2023-03-14T16:38:31;15.40;62.00
20856;DHT22;63058;49.424;8.420;2023-03-14T16:41:02;15.00;63.50
20856;DHT22;63058;49.424;8.420;2023-03-14T16:43:28;14.80;64.50
20856;DHT22;63058;49.424;8.420;2023-03-14T16:45:56;14.40;65.70
20856;DHT22;63058;49.424;8.420;2023-03-14T16:48:23;14.30;65.70
20856;DHT22;63058;49.424;8.420;2023-03-14T16:50:49;14.20;67.70
20856;DHT22;63058;49.424;8.420;2023-03-14T16:53:16;14.00;67.50
20856;DHT22;63058;49.424;8.420;2023-03-14T16:55:42;13.90;68.90
20856;DHT22;63058;49.424;8.420;2023-03-14T16:58:08;13.80;69.80
20856;DHT22;63058;49.424;8.420;2023-03-14T17:00:34;13.70;70.50
20856;DHT22;63058;49.424;8.420;2023-03-14T17:03:00;13.60;70.90
20856;DHT22;63058;49.424;8.420;2023-03-14T17:05:26;13.50;71.70
20856;DHT22;63058;49.424;8.420;2023-03-14T17:07:51;13.40;72.30
20856;DHT22;63058;49.424;8.420;2023-03-14T17:10:17;13.30;71.30
20856;DHT22;63058;49.424;8.420;2023-03-14T17:12:44;13.20;71.50
20856;DHT22;63058;49.424;8.420;2023-03-14T17:15:10;13.10;72.40
20856;DHT22;63058;49.424;8.420;2023-03-14T17:17:36;13.00;72.50
20856;DHT22;63058;49.424;8.420;2023-03-14T17:20:03;13.00;72.70
20856;DHT22;63058;49.424;8.420;2023-03-14T17:22:28;12.80;72.90
20856;DHT22;63058;49.424;8.420;2023-03-14T17:24:54;12.80;73.20
20856;DHT22;63058;49.424;8.420;2023-03-14T17:27:20;12.70;74.20
20856;DHT22;63058;49.424;8.420;2023-03-14T17:29:46;12.60;74.70
20856;DHT22;63058;49.424;8.420;2023-03-14T17:32:13;12.50;74.10
20856;DHT22;63058;49.424;8.420;2023-03-14T17:34:38;12.40;74.80
20856;DHT22;63058;49.424;8.420;2023-03-14T17:37:04;12.30;75.40
20856;DHT22;63058;49.424;8.420;2023-03-14T17:39:30;12.30;75.20
20856;DHT22;63058;49.424;8.420;2023-03-14T17:41:55;12.30;75.50
20856;DHT22;63058;49.424;8.420;2023-03-14T17:44:21;12.20;76.50
20856;DHT22;63058;49.424;8.420;2023-03-14T17:46:47;12.20;76.80
20856;DHT22;63058;49.424;8.420;2023-03-14T17:49:13;12.20;76.20
20856;DHT22;63058;49.424;8.420;2023-03-14T17:51:38;12.10;76.90
20856;DHT22;63058;49.424;8.420;2023-03-14T17:54:04;12.10;77.60
20856;DHT22;63058;49.424;8.420;2023-03-14T17:56:30;12.00;77.80
20856;DHT22;63058;49.424;8.420;2023-03-14T17:58:56;12.00;77.90
20856;DHT22;63058;49.424;8.420;2023-03-14T18:01:22;11.90;78.00
20856;DHT22;63058;49.424;8.420;2023-03-14T18:03:48;11.90;78.10
20856;DHT22;63058;49.424;8.420;2023-03-14T18:06:16;11.80;77.80
20856;DHT22;63058;49.424;8.420;2023-03-14T18:08:42;11.70;77.50
20856;DHT22;63058;49.424;8.420;2023-03-14T18:11:09;11.60;78.00
20856;DHT22;63058;49.424;8.420;2023-03-14T18:13:35;11.50;78.40
20856;DHT22;63058;49.424;8.420;2023-03-14T18:16:05;11.40;78.90
20856;DHT22;63058;49.424;8.420;2023-03-14T18:18:32;11.30;79.70
20856;DHT22;63058;49.424;8.420;2023-03-14T18:20:57;11.20;79.80
20856;DHT22;63058;49.424;8.420;2023-03-14T18:23:23;11.20;80.90
20856;DHT22;63058;49.424;8.420;2023-03-14T18:25:49;11.10;81.50
20856;DHT22;63058;49.424;8.420;2023-03-14T18:28:16;11.00;82.00
20856;DHT22;63058;49.424;8.420;2023-03-14T18:30:42;10.90;82.00
20856;DHT22;63058;49.424;8.420;2023-03-14T18:33:08;10.90;83.00
20856;DHT22;63058;49.424;8.420;2023-03-14T18:35:36;10.80;83.70
20856;DHT22;63058;49.424;8.420;2023-03-14T18:38:01;10.80;84.00
20856;DHT22;63058;49.424;8.420;2023-03-14T18:40:27;10.80;84.90
20856;DHT22;63058;49.424;8.420;2023-03-14T18:42:54;10.70;85.30